Atlas — WDC2601 — position and weather

sailwx.info

Track history (hours):
 
Tides and Currents Weather Stations Pressure Air Temp Water Temp Dewpoint Dewpoint Depression Visibility Wind Speed Wind Dir Waves Ship Positions

Atlas

Owner: Kirby Inland Marine LP, Houston, TX. More information available from US FCC via Universal Licensing System and Coast Guard Vessel Documentation Center.

Last reported at 2017-Sep-20 01:48 UTC. Time now 2017-Sep-25 06:32 UTC.
Position N 29°31' W 094°53'.

Length 22 m; draft 2.9 m.

Type: . MMSI: 366995460.

Date/timePositionNaut miles runAvg speedWind from/ knotsBaromVisibWave heightAir tempDewpointWater temp
2017-Sep-20 01:48N 29°31' W 094°53'2 5.0
2017-Sep-20 01:30N 29°32' W 094°54'2 4.8
2017-Sep-20 01:00N 29°34' W 094°56'2 4.8
2017-Sep-20 00:30N 29°36' W 094°57'2 4.9
2017-Sep-20 00:00N 29°39' W 094°58'3 5.0
2017-Sep-19 23:30N 29°41' W 094°59'2 4.6
2017-Sep-19 23:00N 29°42' W 095°01'2 4.0
2017-Sep-19 22:30N 29°44' W 095°03'2 4.7
2017-Sep-19 22:00N 29°46' W 095°04'2 3.4
2017-Sep-19 21:28N 29°45' W 095°06'2 3.8
2017-Sep-19 21:00N 29°44' W 095°08'2 4.3
2017-Sep-19 20:29N 29°45' W 095°10'4 0.2
2017-Sep-19 03:20N 29°43' W 095°14'0 0.0
2017-Sep-19 03:00N 29°43' W 095°14'0 0.0
2017-Sep-18 22:02N 29°43' W 095°14'0 0.5
2017-Sep-18 21:56N 29°43' W 095°14'0 0.1
2017-Sep-18 21:30N 29°43' W 095°14'0 0.1
2017-Sep-18 19:51N 29°43' W 095°14'2 3.3
2017-Sep-18 19:13N 29°44' W 095°12'1 3.9
2017-Sep-18 19:00N 29°45' W 095°11'2 3.5
2017-Sep-18 18:25N 29°44' W 095°09'2 4.1
2017-Sep-18 17:58N 29°44' W 095°07'2 1.0
2017-Sep-18 16:08N 29°46' W 095°06'0 0.4
2017-Sep-18 15:51N 29°46' W 095°06'0 0.0
2017-Sep-18 12:10N 29°46' W 095°05'1 0.2
2017-Sep-18 06:43N 29°45' W 095°06'0 0.3
2017-Sep-18 06:09N 29°45' W 095°06'0 0.5
2017-Sep-18 06:00N 29°45' W 095°06'0 0.4
2017-Sep-18 05:28N 29°45' W 095°06'0 0.3
2017-Sep-18 05:00N 29°45' W 095°06'1 2.0
2017-Sep-18 04:29N 29°46' W 095°05'0 0.2
2017-Sep-18 03:38N 29°46' W 095°06'0 0.0
2017-Sep-18 03:12N 29°46' W 095°06'0 0.0
2017-Sep-18 00:45N 29°46' W 095°06'0 0.0
2017-Sep-18 00:18N 29°46' W 095°06'0 0.0
2017-Sep-17 23:38N 29°46' W 095°06'0 0.0
2017-Sep-17 23:18N 29°46' W 095°06'0 0.0
2017-Sep-17 20:09N 29°46' W 095°06'0 0.0
2017-Sep-17 19:58N 29°46' W 095°06'0 0.0
2017-Sep-17 19:28N 29°46' W 095°06'0 0.0
2017-Sep-17 18:56N 29°46' W 095°06'0 0.0
2017-Sep-17 18:25N 29°46' W 095°06'0 0.0
2017-Sep-17 18:00N 29°46' W 095°06'0 0.0
2017-Sep-17 08:03N 29°46' W 095°06'0 0.0
2017-Sep-17 07:50N 29°46' W 095°06'0 0.0
2017-Sep-17 07:25N 29°46' W 095°06'0 0.0
2017-Sep-17 06:20N 29°46' W 095°06'0 0.0
2017-Sep-17 06:00N 29°46' W 095°06'0 0.0
2017-Sep-17 05:19N 29°46' W 095°06'0 0.0
2017-Sep-17 04:48N 29°46' W 095°06'0 0.0
2017-Sep-17 04:29N 29°46' W 095°06'0 0.0
2017-Sep-17 03:47N 29°46' W 095°06'0 0.0
2017-Sep-17 03:30N 29°46' W 095°06'0 0.0
2017-Sep-17 03:00N 29°46' W 095°06'0 0.0
2017-Sep-17 02:29N 29°46' W 095°06'0 0.0
2017-Sep-17 00:49N 29°46' W 095°06'0 0.5
2017-Sep-16 23:58N 29°45' W 095°06'0 0.6
2017-Sep-16 23:28N 29°46' W 095°05'2 2.9
2017-Sep-16 22:56N 29°45' W 095°04'1 1.4
2017-Sep-16 22:04N 29°44' W 095°03'0 0.0
2017-Sep-16 17:58N 29°44' W 095°03'0 0.0
2017-Sep-16 17:30N 29°44' W 095°03'0 0.0
2017-Sep-16 05:17N 29°44' W 095°03'0 0.0
2017-Sep-16 04:59N 29°44' W 095°03'0 0.0
2017-Sep-16 04:27N 29°44' W 095°03'0 0.0
2017-Sep-16 03:59N 29°44' W 095°03'0 0.0
2017-Sep-16 03:28N 29°44' W 095°03'0 0.0
2017-Sep-16 02:59N 29°44' W 095°03'0 0.0
2017-Sep-16 02:12N 29°44' W 095°03'0 0.0
2017-Sep-16 01:54N 29°44' W 095°03'0 0.0
2017-Sep-16 01:30N 29°44' W 095°03'1 1.2
2017-Sep-16 01:00N 29°44' W 095°04'2 3.8
2017-Sep-16 00:30N 29°46' W 095°05'1 0.7
2017-Sep-15 23:38N 29°45' W 095°06'0 0.1
2017-Sep-15 15:33N 29°46' W 095°05'0 0.0
2017-Sep-15 10:20N 29°46' W 095°05'0 0.2
2017-Sep-15 08:10N 29°46' W 095°05'1 0.0
2017-Sep-14 19:55N 29°46' W 095°06'0 0.0
2017-Sep-14 11:13N 29°45' W 095°06'0 0.1
2017-Sep-14 10:52N 29°46' W 095°06'0 0.2
2017-Sep-14 10:30N 29°45' W 095°06'0 0.0
2017-Sep-14 10:00N 29°45' W 095°06'0 0.0
2017-Sep-14 01:28N 29°45' W 095°06'0 0.0
2017-Sep-13 11:50N 29°45' W 095°06'0 0.0
2017-Sep-13 01:28N 29°45' W 095°06'0 0.0
2017-Sep-13 00:13N 29°45' W 095°06'0 0.0
2017-Sep-12 15:32N 29°46' W 095°06'0 0.1
2017-Sep-12 13:08N 29°45' W 095°06'0 0.1
2017-Sep-12 13:00N 29°45' W 095°06'0 0.0
2017-Sep-12 11:47N 29°45' W 095°06'0 0.0
2017-Sep-11 23:09N 29°46' W 095°05'1 3.9
2017-Sep-11 22:53N 29°46' W 095°06'1 1.6
2017-Sep-11 22:21N 29°45' W 095°06'2 3.7
2017-Sep-11 21:42N 29°47' W 095°04'2 6.2
2017-Sep-11 21:26N 29°46' W 095°05'0 0.7
2017-Sep-11 20:56N 29°46' W 095°05'0 0.3
2017-Sep-11 20:00N 29°46' W 095°06'0 0.1
2017-Sep-11 18:58N 29°45' W 095°06'1 0.7
2017-Sep-11 17:43N 29°46' W 095°05'1 1.4
2017-Sep-11 17:19N 29°46' W 095°06'0 0.0
2017-Sep-11 16:55N 29°46' W 095°06'0 0.0
2017-Sep-11 16:22N 29°46' W 095°06'0 0.0
2017-Sep-11 16:00N 29°46' W 095°06'0 0.0
2017-Sep-11 14:50N 29°46' W 095°06'0 0.5
2017-Sep-11 14:27N 29°46' W 095°05'0 0.8
2017-Sep-11 13:59N 29°45' W 095°06'1 2.8
2017-Sep-11 13:30N 29°44' W 095°07'2 3.3
2017-Sep-11 13:00N 29°44' W 095°08'2 3.4
2017-Sep-11 12:30N 29°45' W 095°10'3 3.3
2017-Sep-11 11:42N 29°43' W 095°13'1 1.5
2017-Sep-11 10:52N 29°43' W 095°14'3 0.2
2017-Sep-10 15:35N 29°45' W 095°11'1 5.1
2017-Sep-10 15:27N 29°45' W 095°11'3 4.3
2017-Sep-10 14:46N 29°44' W 095°07'3 3.7
2017-Sep-10 13:54N 29°44' W 095°04'2 5.0
2017-Sep-10 13:30N 29°44' W 095°02'2 4.5
2017-Sep-10 13:00N 29°42' W 094°60'3 5.1
2017-Sep-10 12:30N 29°40' W 094°58'3 5.5
2017-Sep-10 12:00N 29°37' W 094°57'3 5.2
2017-Sep-10 11:30N 29°35' W 094°56'3 5.2
2017-Sep-10 11:00N 29°33' W 094°54'2 4.8
2017-Sep-10 10:30N 29°31' W 094°53'  
Track history (hours):
 
Tides and Currents Weather Stations Pressure Air Temp Water Temp Dewpoint Dewpoint Depression Visibility Wind Speed Wind Dir Waves Ship Positions

Atlas

Owner: Kirby Inland Marine LP, Houston, TX. More information available from US FCC via Universal Licensing System and Coast Guard Vessel Documentation Center.

Last reported at 2017-Sep-20 01:48 UTC. Time now 2017-Sep-25 06:32 UTC.
Position N 29°31' W 094°53'.

Length 22 m; draft 2.9 m.

Type: . MMSI: 366995460.

Date/timePositionNaut miles runAvg speedWind from/ knotsBaromVisibWave heightAir tempDewpointWater temp
2017-Sep-20 01:48N 29°31' W 094°53'2 5.0
2017-Sep-20 01:30N 29°32' W 094°54'2 4.8
2017-Sep-20 01:00N 29°34' W 094°56'2 4.8
2017-Sep-20 00:30N 29°36' W 094°57'2 4.9
2017-Sep-20 00:00N 29°39' W 094°58'3 5.0
2017-Sep-19 23:30N 29°41' W 094°59'2 4.6
2017-Sep-19 23:00N 29°42' W 095°01'2 4.0
2017-Sep-19 22:30N 29°44' W 095°03'2 4.7
2017-Sep-19 22:00N 29°46' W 095°04'2 3.4
2017-Sep-19 21:28N 29°45' W 095°06'2 3.8
2017-Sep-19 21:00N 29°44' W 095°08'2 4.3
2017-Sep-19 20:29N 29°45' W 095°10'4 0.2
2017-Sep-19 03:20N 29°43' W 095°14'0 0.0
2017-Sep-19 03:00N 29°43' W 095°14'0 0.0
2017-Sep-18 22:02N 29°43' W 095°14'0 0.5
2017-Sep-18 21:56N 29°43' W 095°14'0 0.1
2017-Sep-18 21:30N 29°43' W 095°14'0 0.1
2017-Sep-18 19:51N 29°43' W 095°14'2 3.3
2017-Sep-18 19:13N 29°44' W 095°12'1 3.9
2017-Sep-18 19:00N 29°45' W 095°11'2 3.5
2017-Sep-18 18:25N 29°44' W 095°09'2 4.1
2017-Sep-18 17:58N 29°44' W 095°07'2 1.0
2017-Sep-18 16:08N 29°46' W 095°06'0 0.4
2017-Sep-18 15:51N 29°46' W 095°06'0 0.0
2017-Sep-18 12:10N 29°46' W 095°05'1 0.2
2017-Sep-18 06:43N 29°45' W 095°06'0 0.3
2017-Sep-18 06:09N 29°45' W 095°06'0 0.5
2017-Sep-18 06:00N 29°45' W 095°06'0 0.4
2017-Sep-18 05:28N 29°45' W 095°06'0 0.3
2017-Sep-18 05:00N 29°45' W 095°06'1 2.0
2017-Sep-18 04:29N 29°46' W 095°05'0 0.2
2017-Sep-18 03:38N 29°46' W 095°06'0 0.0
2017-Sep-18 03:12N 29°46' W 095°06'0 0.0
2017-Sep-18 00:45N 29°46' W 095°06'0 0.0
2017-Sep-18 00:18N 29°46' W 095°06'0 0.0
2017-Sep-17 23:38N 29°46' W 095°06'0 0.0
2017-Sep-17 23:18N 29°46' W 095°06'0 0.0
2017-Sep-17 20:09N 29°46' W 095°06'0 0.0
2017-Sep-17 19:58N 29°46' W 095°06'0 0.0
2017-Sep-17 19:28N 29°46' W 095°06'0 0.0
2017-Sep-17 18:56N 29°46' W 095°06'0 0.0
2017-Sep-17 18:25N 29°46' W 095°06'0 0.0
2017-Sep-17 18:00N 29°46' W 095°06'0 0.0
2017-Sep-17 08:03N 29°46' W 095°06'0 0.0
2017-Sep-17 07:50N 29°46' W 095°06'0 0.0
2017-Sep-17 07:25N 29°46' W 095°06'0 0.0
2017-Sep-17 06:20N 29°46' W 095°06'0 0.0
2017-Sep-17 06:00N 29°46' W 095°06'0 0.0
2017-Sep-17 05:19N 29°46' W 095°06'0 0.0
2017-Sep-17 04:48N 29°46' W 095°06'0 0.0
2017-Sep-17 04:29N 29°46' W 095°06'0 0.0
2017-Sep-17 03:47N 29°46' W 095°06'0 0.0
2017-Sep-17 03:30N 29°46' W 095°06'0 0.0
2017-Sep-17 03:00N 29°46' W 095°06'0 0.0
2017-Sep-17 02:29N 29°46' W 095°06'0 0.0
2017-Sep-17 00:49N 29°46' W 095°06'0 0.5
2017-Sep-16 23:58N 29°45' W 095°06'0 0.6
2017-Sep-16 23:28N 29°46' W 095°05'2 2.9
2017-Sep-16 22:56N 29°45' W 095°04'1 1.4
2017-Sep-16 22:04N 29°44' W 095°03'0 0.0
2017-Sep-16 17:58N 29°44' W 095°03'0 0.0
2017-Sep-16 17:30N 29°44' W 095°03'0 0.0
2017-Sep-16 05:17N 29°44' W 095°03'0 0.0
2017-Sep-16 04:59N 29°44' W 095°03'0 0.0
2017-Sep-16 04:27N 29°44' W 095°03'0 0.0
2017-Sep-16 03:59N 29°44' W 095°03'0 0.0
2017-Sep-16 03:28N 29°44' W 095°03'0 0.0
2017-Sep-16 02:59N 29°44' W 095°03'0 0.0
2017-Sep-16 02:12N 29°44' W 095°03'0 0.0
2017-Sep-16 01:54N 29°44' W 095°03'0 0.0
2017-Sep-16 01:30N 29°44' W 095°03'1 1.2
2017-Sep-16 01:00N 29°44' W 095°04'2 3.8
2017-Sep-16 00:30N 29°46' W 095°05'1 0.7
2017-Sep-15 23:38N 29°45' W 095°06'0 0.1
2017-Sep-15 15:33N 29°46' W 095°05'0 0.0
2017-Sep-15 10:20N 29°46' W 095°05'0 0.2
2017-Sep-15 08:10N 29°46' W 095°05'1 0.0
2017-Sep-14 19:55N 29°46' W 095°06'0 0.0
2017-Sep-14 11:13N 29°45' W 095°06'0 0.1
2017-Sep-14 10:52N 29°46' W 095°06'0 0.2
2017-Sep-14 10:30N 29°45' W 095°06'0 0.0
2017-Sep-14 10:00N 29°45' W 095°06'0 0.0
2017-Sep-14 01:28N 29°45' W 095°06'0 0.0
2017-Sep-13 11:50N 29°45' W 095°06'0 0.0
2017-Sep-13 01:28N 29°45' W 095°06'0 0.0
2017-Sep-13 00:13N 29°45' W 095°06'0 0.0
2017-Sep-12 15:32N 29°46' W 095°06'0 0.1
2017-Sep-12 13:08N 29°45' W 095°06'0 0.1
2017-Sep-12 13:00N 29°45' W 095°06'0 0.0
2017-Sep-12 11:47N 29°45' W 095°06'0 0.0
2017-Sep-11 23:09N 29°46' W 095°05'1 3.9
2017-Sep-11 22:53N 29°46' W 095°06'1 1.6
2017-Sep-11 22:21N 29°45' W 095°06'2 3.7
2017-Sep-11 21:42N 29°47' W 095°04'2 6.2
2017-Sep-11 21:26N 29°46' W 095°05'0 0.7
2017-Sep-11 20:56N 29°46' W 095°05'0 0.3
2017-Sep-11 20:00N 29°46' W 095°06'0 0.1
2017-Sep-11 18:58N 29°45' W 095°06'1 0.7
2017-Sep-11 17:43N 29°46' W 095°05'1 1.4
2017-Sep-11 17:19N 29°46' W 095°06'0 0.0
2017-Sep-11 16:55N 29°46' W 095°06'0 0.0
2017-Sep-11 16:22N 29°46' W 095°06'0 0.0
2017-Sep-11 16:00N 29°46' W 095°06'0 0.0
2017-Sep-11 14:50N 29°46' W 095°06'0 0.5
2017-Sep-11 14:27N 29°46' W 095°05'0 0.8
2017-Sep-11 13:59N 29°45' W 095°06'1 2.8
2017-Sep-11 13:30N 29°44' W 095°07'2 3.3
2017-Sep-11 13:00N 29°44' W 095°08'2 3.4
2017-Sep-11 12:30N 29°45' W 095°10'3 3.3
2017-Sep-11 11:42N 29°43' W 095°13'1 1.5
2017-Sep-11 10:52N 29°43' W 095°14'3 0.2
2017-Sep-10 15:35N 29°45' W 095°11'1 5.1
2017-Sep-10 15:27N 29°45' W 095°11'3 4.3
2017-Sep-10 14:46N 29°44' W 095°07'3 3.7
2017-Sep-10 13:54N 29°44' W 095°04'2 5.0
2017-Sep-10 13:30N 29°44' W 095°02'2 4.5
2017-Sep-10 13:00N 29°42' W 094°60'3 5.1
2017-Sep-10 12:30N 29°40' W 094°58'3 5.5
2017-Sep-10 12:00N 29°37' W 094°57'3 5.2
2017-Sep-10 11:30N 29°35' W 094°56'3 5.2
2017-Sep-10 11:00N 29°33' W 094°54'2 4.8
2017-Sep-10 10:30N 29°31' W 094°53'  

Dump ship's entire track history